メインページ
METAR-TAF:

METAR-TAF

空港 :

タシュケント, ウズベキスタン

タシュケント国際空港

緯度: 41-16N, 経度: 069-16E, 海抜: 489m

現時点の気象観測

当レポートは31分前の16:00(UTC)に作成
の風 2kt
気温 31°C
湿度 31%
気圧 1003 hPa
視程: 4000m

METAR: UTTT 221600Z 10002KT 4000 FU NSC 31/12 Q1003 R08R/CLRD70 NOSIG

時間: 21:31 (16:31 UTC)

予報

当レポートは5時間31分前の11:00(UTC)に作成
予報は22日の 12時(UTC)から 23日の 12時(UTC)まで有効
の風 10kt
視程: 7000m
22日の 12時(UTC)から 22日の 20時(UTC)まで一時的に
南/南西の風 15kt、最大25ktの突風を伴う
確率 40% :
22日の 12時(UTC)から 22日の 20時(UTC)まで一時的に
高度6000ftの雲は散在している, 積乱雲.
激しい雷雨

TAF: UTTT 221100Z 2212/2312 08010KT 7000 NSC TX36/2307Z TEMPO 2212/2220 20015G25KT PROB40 TEMPO 2212/2220 TS SCT060CB

4,000以上の空港の気象観測と天気予報(METAR報とTAF報)

利用可能な観測所は地図上に黄色い丸と赤い丸で示す。

丸の上にカーソルを重ねると観測所名を参照できる。

次にクリックすると気象観測と天気予報を参照できる。

マップの切り替え:黒色「×」印の緑ボタンをクリックして拡大、「-」印の緑ボタンをクリックして縮小、緑色の三角印をクリックして隣りの地図に切り替え


METAR-TAF: